Saxonville, Massachusetts
Current Conditions -  °F | °C
As of 4:56 AM on Friday 21 Nov 2014 (Local Time) from KBED Reporting Station
Clear Clear  
Wind Chill: 16°   Ceiling: Unl
Heat Index: 24°   Visibility: 10mi
Dew Point: 13°   Wind: 7mph
Humidity: 62%   Direction: 230°SW
Pressure: 29.97"   Gusts: NA
Location:  42.3203°N, 71.4404°W
Report Text: KBED 210956Z AUTO 23006KT 10SM CLR M04/M11 A2997 RMK AO2 SLP165 T10441106 TSNO
Loading
Personal Weather Stations






























Interactive Weather Map New forecast layout! Learn more

10-Day Weather Forecast

Advertisements
Track Severe Weather on mobile